Depesze METAR lotnisk w Polsce

METAR – format kodowanego raportu o pogodzie używany w meteorologii lotniczej i prognozie pogody. METAR jest akronimem od ang. Meteorological Aerodrome Report. Typowy METAR zawiera informację o temperaturze, ciśnieniu, temperaturze punktu rosy, sile i kierunku wiatru, opadzie, pokrywie chmur, wysokości podstawy chmur, widzialności, lecz może zawierać też inne informacje (np. stan dróg startowych).

Warszawa-Okęcie (EPWA)

METAR = EPWA 241700Z 32012KT 5000 -SN BR SCT008 BKN024 M01/M02 Q1003 REBLSN NOSIG

STACJA......... EPWA - Warszawa-Okęcie (WAW)
POMIAR......... Fri Feb 24, 18:00 CET
WIATR.......... północno zachodni (NW) z prędkością 22 km/h
WIDZIALNOŚĆ.... 5000 metrów
WARUNKI........ słaby: śnieg & zamglenie 
CHMURY......... zachmurzenie średnie (5/8-7/8)
TEMPERATURA.... -1°C
T.PUNKTU ROSY.. -2°C
WILGOTNOŚĆ..... 93%
T.ODCZUWALNA... -7°C
CIŚNIENIE...... 1003 hPa
WCZEŚNIEJ...... obserwowane były zjawiska: zawieja, śnieg
PROGNOZA....... bez nagłych zmian w ciągu 2h

Sprawdź też: Prognoza pogody Warszawa

Warszawa-Modlin (EPMO)

METAR = EPMO 241630Z 31009KT 9999 -SN SCT025 BKN030 M01/M02 Q1003 WS R26 =

STACJA......... EPMO - Warszawa-Modlin (WMI)
POMIAR......... Fri Feb 24, 17:30 CET
WIATR.......... północno zachodni (NW) z prędkością 17 km/h
WIDZIALNOŚĆ.... powyżej 10 kilometrów
WARUNKI........ słaby: śnieg 
CHMURY......... zachmurzenie średnie (5/8-7/8)
TEMPERATURA.... -1°C
T.PUNKTU ROSY.. -2°C
WILGOTNOŚĆ..... 93%
T.ODCZUWALNA... -6°C
CIŚNIENIE...... 1003 hPa

Sprawdź też: Prognoza pogody Nowy Dwór Mazowiecki

Kraków-Balice (EPKK)

METAR = EPKK 241700Z 28014KT 250V320 9999 FEW031 03/M03 Q1007

STACJA......... EPKK - Kraków-Balice (KRK)
POMIAR......... Fri Feb 24, 18:00 CET
WIATR.......... zachodni (W) z prędkością 26 km/h
WIDZIALNOŚĆ.... powyżej 10 kilometrów
CHMURY......... zachmurzenie niewielkie (1/8-2/8)
TEMPERATURA.... 3°C
T.PUNKTU ROSY.. -3°C
WILGOTNOŚĆ..... 65%
T.ODCZUWALNA... -2°C
CIŚNIENIE...... 1007 hPa

Sprawdź też: Prognoza pogody Kraków

Łódź-Lublinek (EPLL)

METAR = EPLL 241700Z 29010KT 6000 -SN FEW008 SCT009 BKN010 M01/M02 Q1006

STACJA......... EPLL - Łódź-Lublinek (LCJ)
POMIAR......... Fri Feb 24, 18:00 CET
WIATR.......... zachodni północno-zachodni (WNW) z prędkością 19 km/h
WIDZIALNOŚĆ.... 6000 metrów
WARUNKI........ słaby: śnieg 
CHMURY......... zachmurzenie średnie (5/8-7/8)
TEMPERATURA.... -1°C
T.PUNKTU ROSY.. -2°C
WILGOTNOŚĆ..... 93%
T.ODCZUWALNA... -7°C
CIŚNIENIE...... 1006 hPa

Sprawdź też: Prognoza pogody Łódź

Wrocław-Strachowice (EPWR)

METAR = EPWR 241700Z 34006KT 9999 FEW030 01/M03 Q1010

STACJA......... EPWR - Wrocław-Strachowice (WRO)
POMIAR......... Fri Feb 24, 18:00 CET
WIATR.......... północno północno-zachodni (NNW) z prędkością 11 km/h
WIDZIALNOŚĆ.... powyżej 10 kilometrów
CHMURY......... zachmurzenie niewielkie (1/8-2/8)
TEMPERATURA.... 1°C
T.PUNKTU ROSY.. -3°C
WILGOTNOŚĆ..... 75%
T.ODCZUWALNA... -2°C
CIŚNIENIE...... 1010 hPa

Sprawdź też: Prognoza pogody Wrocław

Katowice-Pyrzowice (EPKT)

METAR = EPKT 241700Z 31015KT 9999 FEW023 BKN027 01/M04 Q1007

STACJA......... EPKT - Katowice-Pyrzowice (KTW)
POMIAR......... Fri Feb 24, 18:00 CET
WIATR.......... północno zachodni (NW) z prędkością 28 km/h
WIDZIALNOŚĆ.... powyżej 10 kilometrów
CHMURY......... zachmurzenie średnie (5/8-7/8)
TEMPERATURA.... 1°C
T.PUNKTU ROSY.. -4°C
WILGOTNOŚĆ..... 70%
T.ODCZUWALNA... -5°C
CIŚNIENIE...... 1007 hPa

Sprawdź też: Prognoza pogody Katowice

Gdańsk (EPGD)

METAR = EPGD 241700Z 28012KT CAVOK M01/M05 Q1004

STACJA......... EPGD - Gdańsk im. Lecha Wałęsy (GDN)
POMIAR......... Fri Feb 24, 18:00 CET
WIATR.......... zachodni (W) z prędkością 22 km/h
WIDZIALNOŚĆ.... powyżej 10 kilometrów
CHMURY......... bezchmurne niebo
TEMPERATURA.... -1°C
T.PUNKTU ROSY.. -5°C
WILGOTNOŚĆ..... 75%
T.ODCZUWALNA... -7°C
CIŚNIENIE...... 1004 hPa

Sprawdź też: Prognoza pogody Gdańsk

Poznań-Ławica (EPPO)

METAR = EPPO 241700Z 29011KT CAVOK 01/M03 Q1009

STACJA......... EPPO - Poznań-Ławica (POZ)
POMIAR......... Fri Feb 24, 18:00 CET
WIATR.......... zachodni północno-zachodni (WNW) z prędkością 20 km/h
WIDZIALNOŚĆ.... powyżej 10 kilometrów
CHMURY......... bezchmurne niebo
TEMPERATURA.... 1°C
T.PUNKTU ROSY.. -3°C
WILGOTNOŚĆ..... 75%
T.ODCZUWALNA... -4°C
CIŚNIENIE...... 1009 hPa

Sprawdź też: Prognoza pogody Poznań

Rzeszów-Jasionka (EPRZ)

METAR = EPRZ 241700Z 27028KT 9999 BKN043 06/M04 Q1003

STACJA......... EPRZ - Rzeszów-Jasionka (RZE)
POMIAR......... Fri Feb 24, 18:00 CET
WIATR.......... zachodni (W) z prędkością 52 km/h
WIDZIALNOŚĆ.... powyżej 10 kilometrów
CHMURY......... zachmurzenie średnie (5/8-7/8)
TEMPERATURA.... 6°C
T.PUNKTU ROSY.. -4°C
WILGOTNOŚĆ..... 49%
T.ODCZUWALNA... 0°C
CIŚNIENIE...... 1003 hPa

Sprawdź też: Prognoza pogody Rzeszów

Szczecin-Goleniów (EPSC)

METAR = EPSC 241700Z 25004KT CAVOK 01/M04 Q1008

STACJA......... EPSC - Szczecin-Goleniów (SZZ)
POMIAR......... Fri Feb 24, 18:00 CET
WIATR.......... zachodni południowo-zachodni (WSW) z prędkością 7 km/h
WIDZIALNOŚĆ.... powyżej 10 kilometrów
CHMURY......... bezchmurne niebo
TEMPERATURA.... 1°C
T.PUNKTU ROSY.. -4°C
WILGOTNOŚĆ..... 70%
T.ODCZUWALNA... -1°C
CIŚNIENIE...... 1008 hPa

Sprawdź też: Prognoza pogody Szczecin

Lublin-Świdnik (EPLB)

METAR = EPLB 241630Z 25017KT 9999 -RA BKN035 04/M00 Q0999 =

STACJA......... EPLB - Lublin-Świdnik (LUZ)
POMIAR......... Fri Feb 24, 17:30 CET
WIATR.......... zachodni południowo-zachodni (WSW) z prędkością 31 km/h
WIDZIALNOŚĆ.... powyżej 10 kilometrów
WARUNKI........ słaby: deszcz 
CHMURY......... zachmurzenie średnie (5/8-7/8)
TEMPERATURA.... 4°C
T.PUNKTU ROSY.. 0°C
WILGOTNOŚĆ..... 75%
T.ODCZUWALNA... -2°C
CIŚNIENIE...... 999 hPa

Sprawdź też: Prognoza pogody Lublin

Bydgoszcz-Szwederowo (EPBY)

METAR = EPBY 241630Z 29009KT CAVOK M00/M01 Q1006 R26/290195 =

STACJA......... EPBY - Bydgoszcz-Szwederowo (BZG)
POMIAR......... Fri Feb 24, 17:30 CET
WIATR.......... zachodni północno-zachodni (WNW) z prędkością 17 km/h
WIDZIALNOŚĆ.... powyżej 10 kilometrów
CHMURY......... bezchmurne niebo
TEMPERATURA.... 0°C
T.PUNKTU ROSY.. -1°C
WILGOTNOŚĆ..... 93%
T.ODCZUWALNA... -4°C
CIŚNIENIE...... 1006 hPa
PAS STARTOWY... pas nr 26: woda na pasie na 51-100% pasa, warstwa 1mm, dobra przyczepność hamowania

Sprawdź też: Prognoza pogody Bydgoszcz

Zielona Góra-Babimost (EPZG)

METAR = EPZG 241630Z 25006KT CAVOK 01/M02 Q1010 =

STACJA......... EPZG - Zielona Góra-Babimost (IEG)
POMIAR......... Fri Feb 24, 17:30 CET
WIATR.......... zachodni południowo-zachodni (WSW) z prędkością 11 km/h
WIDZIALNOŚĆ.... powyżej 10 kilometrów
CHMURY......... bezchmurne niebo
TEMPERATURA.... 1°C
T.PUNKTU ROSY.. -2°C
WILGOTNOŚĆ..... 81%
T.ODCZUWALNA... -2°C
CIŚNIENIE...... 1010 hPa

Sprawdź też: Prognoza pogody Zielona Góra

Szymany Olsztyn-Mazury (EPSY)

METAR = EPSY 241630Z 30009KT 260V340 9999 BKN030 00/M03 Q1001=

STACJA......... EPSY - Olsztyn-Mazury (SZY)
POMIAR......... Fri Feb 24, 17:30 CET
WIATR.......... zachodni północno-zachodni (WNW) z prędkością 17 km/h
WIDZIALNOŚĆ.... powyżej 10 kilometrów
CHMURY......... zachmurzenie średnie (5/8-7/8)
TEMPERATURA.... 0°C
T.PUNKTU ROSY.. -3°C
WILGOTNOŚĆ..... 80%
T.ODCZUWALNA... -4°C
CIŚNIENIE...... 1001 hPa

Sprawdź też: Prognoza pogody Olsztyn